Time;durP1;ratioP1;P1;durP2;ratioP2;P2;SDS_P1;SDS_P2;PMS_P1;PMS_P2;Temp;Humidity;BMP_temperature;BMP_pressure;BME280_temperature;BME280_humidity;BME280_pressure;Samples;Min_cycle;Max_cycle;Signal;HPM_P1;HPM_P2
2020/12/31 00:02:15;;;;;;;73.97;30.15;;;;;;;0.31;77.02;99640.08;1785132;80;21571;-83
2020/12/31 00:04:42;;;;;;;75.28;30.95;;;;;;;0.30;77.07;99639.72;1784946;80;21198;-83
2020/12/31 00:07:08;;;;;;;58.38;26.42;;;;;;;0.29;77.10;99638.52;1774882;80;21125;-84
2020/12/31 00:09:35;;;;;;;41.68;18.48;;;;;;;0.24;77.17;99638.91;1772891;80;21616;-83
2020/12/31 00:12:04;;;;;;;29.60;15.75;;;;;;;0.20;77.20;99637.48;1773514;80;21613;-83
2020/12/31 00:14:31;;;;;;;27.87;12.63;;;;;;;0.17;77.23;99635.11;1773017;80;21183;-83
2020/12/31 00:16:57;;;;;;;20.85;12.47;;;;;;;0.13;77.24;99641.55;1773372;80;21203;-83
2020/12/31 00:19:23;;;;;;;22.15;12.15;;;;;;;0.10;77.26;99636.56;1772914;80;21633;-83
2020/12/31 00:21:49;;;;;;;22.07;12.03;;;;;;;0.11;77.30;99638.20;1765872;80;21590;-83
2020/12/31 00:24:16;;;;;;;25.23;12.82;;;;;;;0.11;77.33;99639.51;1741133;82;21109;-83
2020/12/31 00:26:42;;;;;;;29.75;13.80;;;;;;;0.14;77.37;99642.39;1740865;81;21236;-83
2020/12/31 00:29:09;;;;;;;29.12;14.30;;;;;;;0.14;77.42;99645.81;1741556;82;21263;-82
2020/12/31 00:31:35;;;;;;;26.17;13.43;;;;;;;0.13;77.47;99643.34;1747786;81;21180;-83
2020/12/31 00:34:02;;;;;;;32.65;16.07;;;;;;;0.12;77.51;99649.52;1756404;81;21604;-83
2020/12/31 00:36:28;;;;;;;28.38;14.73;;;;;;;0.12;77.54;99650.36;1755738;80;21679;-84
2020/12/31 00:38:54;;;;;;;28.80;15.28;;;;;;;0.12;77.58;99650.83;1756014;81;21195;-83
2020/12/31 00:41:21;;;;;;;31.12;15.48;;;;;;;0.11;77.61;99652.62;1732097;80;21204;-83
2020/12/31 00:43:48;;;;;;;27.17;15.00;;;;;;;0.09;77.64;99658.47;1727620;80;21180;-83
2020/12/31 00:46:14;;;;;;;29.48;14.18;;;;;;;0.04;77.70;99657.98;1741777;81;21197;-83
2020/12/31 00:48:40;;;;;;;27.40;13.95;;;;;;;0.00;77.71;99659.22;1767718;80;21137;-83
2020/12/31 00:51:07;;;;;;;28.90;13.28;;;;;;;-0.03;77.75;99665.98;1773988;80;21212;-83
2020/12/31 00:53:33;;;;;;;32.15;13.32;;;;;;;-0.01;77.78;99665.40;1773103;80;22179;-83
2020/12/31 00:56:00;;;;;;;27.13;12.98;;;;;;;-0.01;77.82;99662.78;1773355;80;21673;-83
2020/12/31 00:58:26;;;;;;;28.27;12.78;;;;;;;-0.01;77.84;99668.02;1773801;80;21148;-83
2020/12/31 01:00:52;;;;;;;37.75;15.72;;;;;;;0.00;77.88;99661.84;1773802;80;21144;-83
2020/12/31 01:03:19;;;;;;;46.37;18.32;;;;;;;0.01;77.88;99663.48;1774017;80;21208;-83
2020/12/31 01:05:46;;;;;;;48.17;17.27;;;;;;;0.01;77.92;99664.79;1775709;79;21205;-82
2020/12/31 01:08:12;;;;;;;53.05;19.12;;;;;;;0.00;77.96;99661.84;1783176;80;21610;-82
2020/12/31 01:10:38;;;;;;;40.98;17.70;;;;;;;0.00;77.98;99665.77;1783119;80;21204;-83
2020/12/31 01:13:05;;;;;;;41.18;16.45;;;;;;;0.01;77.99;99670.03;1783093;80;21227;-83
2020/12/31 01:15:31;;;;;;;34.08;14.45;;;;;;;0.00;78.03;99666.58;1768690;80;21144;-82
2020/12/31 01:17:59;;;;;;;25.62;13.30;;;;;;;0.00;78.08;99667.88;1750559;81;22097;-82
2020/12/31 01:20:25;;;;;;;29.07;13.65;;;;;;;0.02;78.09;99673.02;1750735;81;21192;-82
2020/12/31 01:22:54;;;;;;;24.77;13.62;;;;;;;0.03;78.13;99668.14;1750646;81;21624;-82
2020/12/31 01:25:20;;;;;;;21.20;9.50;;;;;;;0.03;78.16;99666.83;1750831;81;21136;-82
2020/12/31 01:27:46;;;;;;;32.40;14.40;;;;;;;0.04;78.20;99667.16;1751458;81;21144;-82
2020/12/31 01:30:13;;;;;;;26.37;14.10;;;;;;;0.01;78.23;99668.72;1750610;81;21564;-83
2020/12/31 01:32:39;;;;;;;21.90;11.85;;;;;;;0.00;78.25;99672.31;1764021;81;21127;-83
2020/12/31 01:35:05;;;;;;;21.90;11.60;;;;;;;-0.01;78.26;99666.71;1779722;80;21576;-83
2020/12/31 01:37:32;;;;;;;21.80;12.10;;;;;;;-0.01;78.30;99665.40;1777623;79;21639;-83
2020/12/31 01:39:58;;;;;;;22.25;11.78;;;;;;;-0.02;78.33;99668.97;1750624;81;21187;-83
2020/12/31 01:42:24;;;;;;;22.02;11.03;;;;;;;0.00;78.35;99671.81;1750820;81;21206;-83
2020/12/31 01:44:50;;;;;;;24.50;12.90;;;;;;;0.02;78.40;99664.31;1750137;81;21638;-83
2020/12/31 01:47:17;;;;;;;20.52;11.73;;;;;;;0.04;78.42;99671.09;1750725;81;21228;-83
2020/12/31 01:49:43;;;;;;;24.02;12.37;;;;;;;0.05;78.46;99678.02;1750588;81;21189;-83
2020/12/31 01:52:10;;;;;;;26.93;14.58;;;;;;;0.07;78.48;99680.53;1750791;81;21141;-83
2020/12/31 01:54:36;;;;;;;30.35;15.60;;;;;;;0.08;78.53;99680.39;1775718;80;21214;-83
2020/12/31 01:57:03;;;;;;;27.05;14.23;;;;;;;0.09;78.55;99680.75;1783128;79;21155;-83
2020/12/31 01:59:29;;;;;;;24.43;12.65;;;;;;;0.09;78.58;99684.69;1783414;80;21149;-83
2020/12/31 02:01:55;;;;;;;23.27;12.35;;;;;;;0.08;78.60;99685.62;1782480;80;21774;-83
2020/12/31 02:04:21;;;;;;;26.37;12.07;;;;;;;0.08;78.63;99689.56;1782841;80;21191;-83
2020/12/31 02:06:48;;;;;;;20.97;12.10;;;;;;;0.09;78.65;99691.23;1783953;78;21196;-83
2020/12/31 02:09:14;;;;;;;23.07;12.10;;;;;;;0.11;78.66;99690.63;1785247;79;21219;-83
2020/12/31 02:11:40;;;;;;;25.40;12.68;;;;;;;0.11;78.69;99689.78;1785206;80;21180;-83
2020/12/31 02:14:07;;;;;;;24.32;13.48;;;;;;;0.10;78.72;99692.91;1784815;80;21826;-84
2020/12/31 02:16:40;;;;;;;26.65;13.75;;;;;;;0.09;78.73;99690.40;1785143;80;21660;-82
2020/12/31 02:19:16;;;;;;;28.57;14.07;;;;;;;0.07;78.76;99694.44;1770688;79;21255;-83
2020/12/31 02:21:46;;;;;;;26.27;13.13;;;;;;;0.03;78.78;99691.73;1785893;80;21192;-82
2020/12/31 02:24:13;;;;;;;;;;;;;;;0.00;78.83;99691.97;1773128;80;21167;-82
2020/12/31 02:26:40;;;;;;;24.65;12.90;;;;;;;-0.08;78.83;99697.81;1776425;80;20289;-82
2020/12/31 02:29:08;;;;;;;25.60;12.55;;;;;;;-0.16;78.87;99704.11;1778648;80;21140;-82
2020/12/31 02:31:35;;;;;;;23.75;13.03;;;;;;;-0.22;78.87;99700.67;1777609;80;21574;-83
2020/12/31 02:34:01;;;;;;;25.62;13.48;;;;;;;-0.25;78.92;99698.30;1776435;80;21176;-82
2020/12/31 02:36:29;;;;;;;27.55;13.30;;;;;;;-0.27;78.91;99698.03;1777714;80;21569;-82
2020/12/31 02:39:00;;;;;;;25.75;12.37;;;;;;;-0.29;78.95;99703.41;1772524;80;22252;-82
2020/12/31 02:41:26;;;;;;;25.12;13.03;;;;;;;-0.28;78.95;99705.05;1770269;81;21861;-83
2020/12/31 02:43:53;;;;;;;23.18;12.47;;;;;;;-0.27;78.98;99703.27;1777645;80;21226;-83
2020/12/31 02:46:20;;;;;;;27.73;14.05;;;;;;;-0.26;79.00;99701.02;1785349;80;21136;-82
2020/12/31 02:48:47;;;;;;;24.40;12.47;;;;;;;-0.27;79.04;99704.11;1784739;79;21230;-83
2020/12/31 02:51:14;;;;;;;27.07;13.93;;;;;;;-0.27;79.06;99703.27;1785413;80;21371;-82
2020/12/31 02:53:40;;;;;;;27.40;14.50;;;;;;;-0.29;79.06;99709.12;1785202;80;21172;-82
2020/12/31 02:56:12;;;;;;;24.52;12.65;;;;;;;-0.32;79.09;99711.50;1785395;80;22549;-82
2020/12/31 02:58:39;;;;;;;22.32;12.28;;;;;;;-0.34;79.12;99709.94;1785381;80;21151;-82
2020/12/31 03:01:06;;;;;;;28.17;12.85;;;;;;;-0.36;79.13;99706.14;1785186;79;21220;-82
2020/12/31 03:03:32;;;;;;;25.17;12.00;;;;;;;-0.36;79.16;99707.45;1785269;80;21156;-82
2020/12/31 03:05:59;;;;;;;23.45;11.85;;;;;;;-0.36;79.19;99711.85;1783500;78;21580;-83
2020/12/31 03:08:25;;;;;;;26.50;12.73;;;;;;;-0.36;79.21;99711.85;1752374;80;21245;-82
2020/12/31 03:10:54;;;;;;;27.07;12.73;;;;;;;-0.35;79.20;99709.59;1724543;81;21149;-82
2020/12/31 03:13:19;;;;;;;24.92;12.78;;;;;;;-0.34;79.25;99709.46;1722816;81;21192;-82
2020/12/31 03:15:46;;;;;;;27.50;14.53;;;;;;;-0.35;79.25;99703.86;1721110;83;21897;-82
2020/12/31 03:18:12;;;;;;;26.23;13.05;;;;;;;-0.33;79.29;99705.06;1736246;81;21199;-82
2020/12/31 03:20:43;;;;;;;25.48;12.50;;;;;;;-0.32;79.32;99708.05;1740816;82;21180;-82
2020/12/31 03:23:06;;;;;;;24.52;13.60;;;;;;;-0.32;79.34;99700.19;1740350;82;21145;-82
2020/12/31 03:25:32;;;;;;;24.87;13.25;;;;;;;-0.32;79.36;99706.73;1740703;82;21132;-82
2020/12/31 03:27:59;;;;;;;19.27;11.35;;;;;;;-0.32;79.38;99702.34;1740658;82;21193;-82
2020/12/31 03:30:25;;;;;;;24.12;12.73;;;;;;;-0.30;79.40;99704.82;1741080;82;21141;-82
2020/12/31 03:32:51;;;;;;;21.25;11.15;;;;;;;-0.28;79.41;99699.81;1739033;81;21646;-82
2020/12/31 03:35:17;;;;;;;20.50;11.60;;;;;;;-0.23;79.44;99694.23;1735954;82;21303;-82
2020/12/31 03:37:44;;;;;;;24.60;13.45;;;;;;;-0.19;79.46;99699.59;1736357;82;21172;-82
2020/12/31 03:40:10;;;;;;;28.27;14.15;;;;;;;-0.18;79.48;99698.17;1736483;82;21129;-82
2020/12/31 03:42:36;;;;;;;21.95;11.05;;;;;;;-0.13;79.51;99699.11;1736430;82;21535;-82
2020/12/31 03:45:03;;;;;;;19.23;11.15;;;;;;;-0.09;79.53;99701.84;1736331;82;21145;-82
2020/12/31 03:47:29;;;;;;;22.45;11.15;;;;;;;-0.07;79.56;99700.77;1738307;81;21093;-82
2020/12/31 03:49:55;;;;;;;20.50;10.75;;;;;;;-0.01;79.58;99699.47;1740817;82;21168;-82
2020/12/31 03:52:21;;;;;;;25.17;10.13;;;;;;;0.02;79.59;99695.30;1740929;82;21580;-82
2020/12/31 03:54:48;;;;;;;19.00;9.48;;;;;;;0.08;79.60;99697.42;1740574;82;21125;-82
2020/12/31 03:57:14;;;;;;;17.20;9.98;;;;;;;0.14;79.61;99691.69;1740817;82;22150;-82
2020/12/31 03:59:40;;;;;;;22.73;9.73;;;;;;;0.21;79.61;99690.25;1683994;82;21140;-82
2020/12/31 04:02:07;;;;;;;17.90;10.25;;;;;;;0.25;79.64;99685.12;1736436;82;21117;-82
2020/12/31 04:04:34;;;;;;;23.07;10.72;;;;;;;0.30;79.63;99688.22;1720890;82;21187;-82
2020/12/31 04:07:00;;;;;;;21.82;9.68;;;;;;;0.33;79.67;99693.69;1691222;83;21161;-82
2020/12/31 04:09:26;;;;;;;19.07;10.72;;;;;;;0.34;79.68;99690.96;1704500;82;22116;-82
2020/12/31 04:11:52;;;;;;;22.27;11.45;;;;;;;0.38;79.70;99692.86;1742598;82;21586;-82
2020/12/31 04:14:19;;;;;;;20.17;10.80;;;;;;;0.39;79.71;99694.03;1698190;84;21187;-82
2020/12/31 04:16:45;;;;;;;21.60;10.75;;;;;;;0.36;79.72;99690.34;1727195;83;21168;-82
2020/12/31 04:19:11;;;;;;;19.75;11.38;;;;;;;0.35;79.73;99690.48;1739681;82;21132;-82
2020/12/31 04:21:37;;;;;;;20.27;10.68;;;;;;;0.34;79.75;99688.34;1749758;81;22271;-82
2020/12/31 04:24:04;;;;;;;22.00;9.95;;;;;;;0.31;79.74;99695.14;1770397;81;21153;-82
2020/12/31 04:26:30;;;;;;;18.45;9.33;;;;;;;0.32;79.75;99692.85;1770314;81;21049;-83
2020/12/31 04:28:56;;;;;;;20.05;10.20;;;;;;;0.31;79.75;99694.30;1770356;81;21112;-83
2020/12/31 04:31:23;;;;;;;18.05;10.53;;;;;;;0.30;79.76;99703.95;1770500;81;21154;-82
2020/12/31 04:33:49;;;;;;;22.82;11.63;;;;;;;0.29;79.76;99706.21;1770206;81;21190;-82
2020/12/31 04:36:15;;;;;;;20.45;11.25;;;;;;;0.27;79.76;99705.52;1770170;81;21204;-82
2020/12/31 04:38:41;;;;;;;35.20;11.93;;;;;;;0.26;79.78;99705.63;1742061;81;21609;-82
2020/12/31 04:41:08;;;;;;;28.80;12.78;;;;;;;0.23;79.80;99708.02;1770279;81;21468;-82
2020/12/31 04:43:35;;;;;;;18.80;11.55;;;;;;;0.20;79.80;99706.95;1770428;81;21223;-82
2020/12/31 04:46:01;;;;;;;22.58;12.50;;;;;;;0.18;79.81;99714.56;1770424;81;21188;-83
2020/12/31 04:48:39;;;;;;;21.97;11.43;;;;;;;0.15;79.81;99715.64;1741801;81;21077;-83
2020/12/31 04:51:07;;;;;;;23.07;12.15;;;;;;;0.11;79.81;99716.00;1738177;82;21193;-83
2020/12/31 04:53:33;;;;;;;30.35;12.73;;;;;;;0.08;79.79;99724.95;1738189;81;21173;-83
2020/12/31 04:56:03;;;;;;;24.60;12.63;;;;;;;0.04;79.82;99726.61;1738095;82;21121;-83
2020/12/31 04:58:29;;;;;;;25.45;13.43;;;;;;;-0.01;79.81;99736.16;1738216;81;21645;-82
2020/12/31 05:00:55;;;;;;;62.93;25.05;;;;;;;-0.03;79.83;99740.67;1738080;82;21196;-82
2020/12/31 05:03:21;;;;;;;33.88;16.15;;;;;;;-0.08;79.83;99734.97;1737954;82;21169;-83
2020/12/31 05:05:51;;;;;;;24.90;13.62;;;;;;;-0.14;79.87;99744.13;1738308;82;21089;-83
2020/12/31 05:08:17;;;;;;;24.43;14.03;;;;;;;-0.22;79.87;99743.06;1711294;82;21120;-83
2020/12/31 05:10:54;;;;;;;28.73;15.83;;;;;;;-0.31;79.89;99750.30;1736458;82;21197;-83
2020/12/31 05:13:21;;;;;;;22.45;12.85;;;;;;;-0.41;79.92;99751.48;1753482;81;21589;-83
2020/12/31 05:15:47;;;;;;;25.27;14.83;;;;;;;-0.52;79.91;99756.69;1776443;80;21132;-83
2020/12/31 05:18:23;;;;;;;30.17;15.63;;;;;;;-0.58;79.91;99751.92;1787070;79;21152;-83
2020/12/31 05:20:55;;;;;;;29.80;15.30;;;;;;;-0.64;79.92;99765.48;1786851;80;21534;-83
2020/12/31 05:23:26;;;;;;;27.07;14.93;;;;;;;-0.71;79.93;99759.88;1786300;80;22162;-83
2020/12/31 05:25:53;;;;;;;38.60;17.87;;;;;;;-0.74;79.96;99761.89;1786911;80;21136;-83
2020/12/31 05:28:28;;;;;;;28.80;14.80;;;;;;;-0.74;79.95;99769.23;1787123;79;21139;-83
2020/12/31 05:31:01;;;;;;;28.75;14.15;;;;;;;-0.78;79.99;99767.82;1786965;80;21191;-83
2020/12/31 05:33:34;;;;;;;29.52;15.65;;;;;;;-0.78;80.02;99773.06;1787218;80;21139;-83
2020/12/31 05:36:25;;;;;;;30.52;15.63;;;;;;;-0.75;80.04;99770.20;1787182;80;22191;-83
2020/12/31 05:39:01;;;;;;;22.17;13.13;;;;;;;-0.73;80.03;99775.31;1749324;81;21600;-83
2020/12/31 05:41:30;;;;;;;23.73;12.55;;;;;;;-0.69;80.05;99773.67;1787066;79;21124;-83
2020/12/31 05:44:01;;;;;;;25.90;13.65;;;;;;;-0.64;80.06;99780.72;1758214;80;21591;-83
2020/12/31 05:46:29;;;;;;;21.80;13.15;;;;;;;-0.59;80.06;99785.13;1752435;80;21116;-83
2020/12/31 05:49:10;;;;;;;27.17;14.30;;;;;;;-0.56;80.07;99780.96;1753625;81;22076;-83
2020/12/31 05:51:40;;;;;;;35.15;15.85;;;;;;;-0.53;80.10;99783.84;1753407;81;21585;-82
2020/12/31 05:54:15;;;;;;;38.78;18.92;;;;;;;-0.49;80.13;99789.19;1753603;81;21132;-82
2020/12/31 05:56:42;;;;;;;35.00;16.85;;;;;;;-0.48;80.15;99786.09;1753413;81;21116;-82
2020/12/31 05:59:23;;;;;;;31.10;16.00;;;;;;;-0.49;80.18;99781.83;1753480;81;21116;-83
2020/12/31 06:02:01;;;;;;;33.58;16.32;;;;;;;-0.52;80.19;99792.88;1753563;81;21467;-83
2020/12/31 06:04:42;;;;;;;31.75;15.50;;;;;;;-0.57;80.20;99787.64;1753296;81;21132;-82
2020/12/31 06:07:08;;;;;;;26.27;14.13;;;;;;;-0.64;80.24;99790.36;1753512;81;21251;-83
2020/12/31 06:09:35;;;;;;;38.53;16.02;;;;;;;-0.65;80.25;99793.44;1746554;81;21235;-82
2020/12/31 06:12:10;;;;;;;40.08;17.95;;;;;;;-0.64;80.26;99796.43;1752419;79;21167;-83
2020/12/31 06:14:37;;;;;;;40.63;18.62;;;;;;;-0.63;80.29;99802.00;1752776;81;21142;-83
2020/12/31 06:17:05;;;;;;;27.17;13.10;;;;;;;-0.64;80.27;99800.83;1752354;81;21137;-82
2020/12/31 06:19:39;;;;;;;26.93;14.63;;;;;;;-0.65;80.29;99801.30;1752837;81;21156;-83
2020/12/31 06:22:07;;;;;;;25.77;13.93;;;;;;;-0.67;80.31;99803.17;1752637;81;21140;-82
2020/12/31 06:27:29;;;;;;;26.07;14.18;;;;;;;-0.65;80.36;99803.91;1816224;77;22699;-83
2020/12/31 06:29:55;;;;;;;26.20;14.10;;;;;;;-0.67;80.37;99803.17;1788336;80;21557;-83
2020/12/31 06:32:37;;;;;;;29.65;15.38;;;;;;;-0.67;80.38;99803.17;1727409;81;21149;-83
2020/12/31 06:35:07;;;;;;;31.70;14.98;;;;;;;-0.68;80.37;99805.45;1757994;80;21052;-83
2020/12/31 06:37:34;;;;;;;26.95;13.53;;;;;;;-0.70;80.38;99803.41;1788121;79;21147;-83
2020/12/31 06:40:24;;;;;;;24.07;13.53;;;;;;;-0.70;80.39;99807.80;1788456;80;21588;-83
2020/12/31 06:43:11;;;;;;;26.97;12.53;;;;;;;-0.68;80.41;99812.00;1788561;80;20914;-83
2020/12/31 06:45:46;;;;;;;22.82;11.43;;;;;;;-0.66;80.41;99808.78;1788184;80;21392;-83
2020/12/31 06:48:30;;;;;;;26.15;13.58;;;;;;;-0.63;80.41;99811.16;1787224;80;21664;-83
2020/12/31 06:50:59;;;;;;;21.82;13.20;;;;;;;-0.61;80.42;99815.83;1788361;79;21119;-83
2020/12/31 06:53:45;;;;;;;23.45;12.58;;;;;;;-0.58;80.43;99813.45;1788282;80;21123;-83
2020/12/31 06:56:13;;;;;;;23.10;13.48;;;;;;;-0.56;80.45;99820.70;1788654;80;21176;-83
2020/12/31 06:58:43;;;;;;;23.73;13.98;;;;;;;-0.57;80.46;99818.59;1788180;80;21190;-82
2020/12/31 07:01:26;;;;;;;26.70;13.20;;;;;;;-0.57;80.49;99814.66;1788421;80;21112;-82
2020/12/31 07:03:56;;;;;;;24.20;12.68;;;;;;;-0.55;80.50;99819.30;1787350;80;21529;-82
2020/12/31 07:06:32;;;;;;;23.15;12.60;;;;;;;-0.55;80.53;99821.92;1773067;79;21595;-82
2020/12/31 07:09:00;;;;;;;27.40;13.22;;;;;;;-0.52;80.54;99824.30;1761393;80;21142;-82
2020/12/31 07:11:39;;;;;;;26.00;14.25;;;;;;;-0.49;80.53;99828.97;1757658;80;21260;-83
2020/12/31 07:14:25;;;;;;;28.42;15.75;;;;;;;-0.51;80.55;99832.53;1781353;80;21191;-83
2020/12/31 07:17:06;;;;;;;43.17;18.70;;;;;;;-0.47;80.55;99832.30;1788203;80;21100;-83
2020/12/31 07:19:43;;;;;;;48.85;24.18;;;;;;;-0.43;80.58;99828.50;1788328;80;21099;-83
2020/12/31 07:22:17;;;;;;;54.30;25.72;;;;;;;-0.40;80.58;99836.13;1777020;80;21492;-83
2020/12/31 07:25:06;;;;;;;54.18;23.30;;;;;;;-0.37;80.60;99841.13;1757144;81;21264;-83
2020/12/31 07:27:36;;;;;;;37.28;18.02;;;;;;;-0.36;80.60;99842.34;1757180;80;21164;-83
2020/12/31 07:30:14;;;;;;;28.52;14.98;;;;;;;-0.44;80.61;99838.61;1757134;80;21140;-83
2020/12/31 07:33:01;;;;;;;33.30;16.20;;;;;;;-0.55;80.62;99846.80;1757104;81;21145;-83
2020/12/31 07:35:39;;;;;;;32.58;17.73;;;;;;;-0.66;80.66;99849.36;1757850;80;21180;-83
2020/12/31 07:38:18;;;;;;;45.95;20.85;;;;;;;-0.73;80.69;99855.99;1758624;80;21135;-83
2020/12/31 07:40:50;;;;;;;41.08;20.05;;;;;;;-0.84;80.71;99849.39;1756633;81;21151;-83
2020/12/31 07:43:20;;;;;;;51.45;27.20;;;;;;;-0.90;80.71;99848.53;1756583;81;21108;-83
2020/12/31 07:45:51;;;;;;;63.28;27.58;;;;;;;-0.90;80.70;99851.15;1756562;81;21565;-83
2020/12/31 07:48:17;;;;;;;52.27;23.95;;;;;;;-0.81;80.70;99850.97;1756713;81;21073;-83
2020/12/31 07:50:44;;;;;;;48.20;21.95;;;;;;;-0.80;80.68;99852.15;1762725;80;21196;-83
2020/12/31 07:53:12;;;;;;;38.28;17.80;;;;;;;-0.79;80.66;99851.21;1764003;80;21441;-82
2020/12/31 07:55:40;;;;;;;40.75;17.77;;;;;;;-0.76;80.67;99850.98;1787166;78;21491;-83
2020/12/31 07:58:07;;;;;;;50.43;22.35;;;;;;;-0.73;80.66;99850.75;1778568;80;21564;-83
2020/12/31 08:00:34;;;;;;;42.40;21.12;;;;;;;-0.69;80.67;99853.52;1756602;81;21560;-83
2020/12/31 08:03:00;;;;;;;33.02;18.17;;;;;;;-0.69;80.65;99856.60;1758732;80;21188;-83
2020/12/31 08:05:27;;;;;;;29.07;15.08;;;;;;;-0.66;80.67;99854.59;1756680;81;21240;-83
2020/12/31 08:07:56;;;;;;;31.10;16.87;;;;;;;-0.62;80.68;99853.43;1726809;81;21139;-83
2020/12/31 08:10:23;;;;;;;34.58;20.40;;;;;;;-0.56;80.68;99860.82;1756062;81;21112;-83
2020/12/31 08:12:58;;;;;;;48.85;24.98;;;;;;;-0.47;80.67;99859.80;1756680;80;21092;-83
2020/12/31 08:15:25;;;;;;;60.85;28.70;;;;;;;-0.41;80.67;99865.88;1762527;80;21257;-83
2020/12/31 08:17:55;;;;;;;96.70;45.35;;;;;;;-0.35;80.69;99862.83;1737757;80;21089;-83
2020/12/31 08:20:23;;;;;;;128.55;57.80;;;;;;;-0.29;80.71;99856.66;1776580;80;21570;-83
2020/12/31 08:22:58;;;;;;;75.10;37.27;;;;;;;-0.22;80.70;99863.11;1787790;80;21151;-82
2020/12/31 08:25:33;;;;;;;60.70;29.75;;;;;;;-0.17;80.68;99861.42;1786880;79;21127;-83
2020/12/31 08:28:04;;;;;;;39.83;20.72;;;;;;;-0.15;80.67;99862.16;1778762;80;21163;-82
2020/12/31 08:30:31;;;;;;;45.78;20.45;;;;;;;-0.16;80.67;99863.11;1756099;80;21139;-83
2020/12/31 08:32:58;;;;;;;45.45;20.32;;;;;;;-0.17;80.67;99865.35;1756520;80;21122;-82
2020/12/31 08:35:39;;;;;;;93.42;40.85;;;;;;;-0.21;80.66;99863.44;1756683;81;21207;-82
2020/12/31 08:38:11;;;;;;;171.57;70.15;;;;;;;-0.21;80.65;99866.06;1756436;81;21532;-83
2020/12/31 08:40:53;;;;;;;173.53;67.47;;;;;;;-0.21;80.65;99866.56;1756537;80;22099;-83
2020/12/31 08:43:25;;;;;;;129.68;52.67;;;;;;;-0.22;80.63;99861.80;1756418;81;21542;-83
2020/12/31 08:45:56;;;;;;;93.52;40.35;;;;;;;-0.17;80.62;99867.97;1756481;80;21104;-83
2020/12/31 08:48:24;;;;;;;85.42;42.43;;;;;;;-0.15;80.63;99868.71;1756537;81;21063;-82
2020/12/31 08:51:06;;;;;;;75.42;34.05;;;;;;;-0.12;80.63;99868.48;1756454;80;21584;-82
2020/12/31 08:53:35;;;;;;;95.70;42.43;;;;;;;-0.13;80.63;99865.49;1756575;81;22061;-82
2020/12/31 08:56:07;;;;;;;79.92;34.83;;;;;;;-0.09;80.63;99864.31;1765470;80;21112;-82
2020/12/31 08:58:33;;;;;;;89.13;35.58;;;;;;;-0.08;80.62;99869.45;1786531;80;21108;-83
2020/12/31 09:00:59;;;;;;;69.10;29.90;;;;;;;-0.05;80.64;99867.06;1781396;80;21103;-83
2020/12/31 09:03:26;;;;;;;57.27;25.17;;;;;;;0.03;80.63;99866.02;1756438;80;21207;-82
2020/12/31 09:06:00;;;;;;;73.02;29.00;;;;;;;0.09;80.61;99868.17;1756738;81;21194;-83
2020/12/31 09:08:27;;;;;;;80.32;31.00;;;;;;;0.17;80.57;99870.20;1756252;81;21139;-82
2020/12/31 09:11:06;;;;;;;58.33;23.10;;;;;;;0.22;80.52;99863.65;1758553;80;21649;-83
2020/12/31 09:13:36;;;;;;;67.53;26.52;;;;;;;0.25;80.54;99867.81;1756634;80;21167;-83
2020/12/31 09:16:12;;;;;;;76.80;27.37;;;;;;;0.31;80.51;99869.98;1756756;80;21151;-83
2020/12/31 09:18:42;;;;;;;87.75;28.87;;;;;;;0.40;80.47;99871.89;1756674;80;21931;-83
2020/12/31 09:21:09;;;;;;;188.15;50.03;;;;;;;0.48;80.46;99866.42;1786971;80;21104;-83
2020/12/31 09:23:35;;;;;;;167.22;42.10;;;;;;;0.58;80.44;99869.63;1787739;80;21159;-83
2020/12/31 09:26:02;;;;;;;85.77;32.70;;;;;;;0.68;80.42;99866.64;1787706;80;21520;-83
2020/12/31 09:28:28;;;;;;;92.78;30.10;;;;;;;0.76;80.39;99864.25;1793644;78;21111;-83
2020/12/31 09:30:55;;;;;;;69.22;25.75;;;;;;;0.81;80.35;99855.05;1791261;80;21142;-83
2020/12/31 09:33:22;;;;;;;93.50;27.93;;;;;;;0.90;80.34;99860.06;1791489;80;21112;-83
2020/12/31 09:35:49;;;;;;;203.18;76.55;;;;;;;0.97;80.31;99856.83;1793415;80;21064;-83
2020/12/31 09:38:16;;;;;;;301.40;125.65;;;;;;;1.05;80.30;99855.38;1793215;80;21167;-83
2020/12/31 09:40:43;;;;;;;225.93;113.80;;;;;;;1.12;80.24;99852.14;1793891;80;21123;-83
2020/12/31 09:43:09;;;;;;;151.93;76.85;;;;;;;1.20;80.22;99854.97;1793334;80;22087;-83
2020/12/31 09:45:38;;;;;;;137.60;98.15;;;;;;;1.26;80.18;99854.48;1793331;80;21171;-83
2020/12/31 09:48:03;;;;;;;182.82;106.10;;;;;;;1.34;80.14;99850.73;1793272;80;21115;-83
2020/12/31 09:50:30;;;;;;;181.07;112.20;;;;;;;1.42;80.10;99841.77;1778087;80;21587;-83
2020/12/31 09:52:57;;;;;;;88.78;45.73;;;;;;;1.48;80.03;99846.50;1762075;80;21110;-83
2020/12/31 09:55:24;;;;;;;76.62;37.33;;;;;;;1.51;80.00;99847.56;1764342;80;21187;-84
2020/12/31 09:57:51;;;;;;;45.28;22.65;;;;;;;1.57;79.94;99848.03;1764370;80;21512;-83
2020/12/31 10:00:17;;;;;;;46.60;27.67;;;;;;;1.61;79.88;99838.94;1761861;81;21583;-83
2020/12/31 10:02:44;;;;;;;44.65;23.62;;;;;;;1.65;79.83;99848.24;1762324;81;21110;-83
2020/12/31 10:05:10;;;;;;;26.85;14.75;;;;;;;1.71;79.79;99839.84;1762180;80;21100;-83
2020/12/31 10:07:36;;;;;;;34.55;18.37;;;;;;;1.77;79.75;99838.01;1792996;80;21685;-83
2020/12/31 10:10:03;;;;;;;32.13;16.35;;;;;;;1.85;79.70;99831.64;1792257;80;21169;-83
2020/12/31 10:12:30;;;;;;;34.13;18.82;;;;;;;1.92;79.66;99826.22;1793562;80;21095;-83
2020/12/31 10:14:59;;;;;;;45.17;26.85;;;;;;;2.00;79.62;99823.31;1793582;80;21116;-83
2020/12/31 10:17:25;;;;;;;39.10;21.70;;;;;;;2.07;79.59;99821.47;1793398;80;21520;-84
2020/12/31 10:19:53;;;;;;;39.53;20.23;;;;;;;2.14;79.54;99822.14;1793571;78;21962;-84
2020/12/31 10:22:19;;;;;;;73.35;32.55;;;;;;;2.19;79.50;99821.24;1793159;80;21096;-84
2020/12/31 10:24:46;;;;;;;66.37;30.60;;;;;;;2.24;79.45;99816.44;1793700;80;21159;-83
2020/12/31 10:27:12;;;;;;;80.03;44.10;;;;;;;2.28;79.38;99813.90;1793307;78;21494;-83
2020/12/31 10:29:39;;;;;;;62.73;34.18;;;;;;;2.32;79.30;99808.70;1793465;78;21119;-84
2020/12/31 10:32:05;;;;;;;64.82;34.20;;;;;;;2.37;79.23;99808.31;1793634;80;22164;-84
2020/12/31 10:34:32;;;;;;;90.15;46.30;;;;;;;2.41;79.16;99815.81;1773263;79;21644;-84
2020/12/31 10:36:58;;;;;;;208.07;90.53;;;;;;;2.43;79.10;99810.41;1762136;80;21047;-83
2020/12/31 10:39:25;;;;;;;298.48;119.72;;;;;;;2.46;79.02;99813.60;1762042;80;21135;-84
2020/12/31 10:41:51;;;;;;;178.62;87.55;;;;;;;2.47;78.94;99807.86;1762216;81;21111;-84
2020/12/31 10:44:19;;;;;;;248.97;119.77;;;;;;;2.49;78.87;99808.58;1762164;80;21195;-84
2020/12/31 10:46:45;;;;;;;348.40;144.25;;;;;;;2.50;78.80;99805.80;1762118;81;21139;-85
2020/12/31 10:49:11;;;;;;;70.55;32.45;;;;;;;2.51;78.73;99800.89;1762095;81;21137;-85
2020/12/31 10:51:40;;;;;;;49.33;26.00;;;;;;;2.56;78.64;99796.55;1762012;81;21135;-84
2020/12/31 10:54:07;;;;;;;51.70;25.02;;;;;;;2.59;78.55;99804.66;1775107;80;21099;-84
2020/12/31 10:56:34;;;;;;;44.38;24.92;;;;;;;2.62;78.47;99804.38;1793246;80;21187;-84
2020/12/31 10:59:01;;;;;;;34.27;18.52;;;;;;;2.65;78.40;99801.48;1790985;80;21163;-85
2020/12/31 11:01:27;;;;;;;44.85;24.90;;;;;;;2.67;78.34;99794.30;1781279;78;21110;-83
2020/12/31 11:03:53;;;;;;;35.35;18.23;;;;;;;2.73;78.25;99796.38;1787115;80;21111;-84
2020/12/31 11:06:26;;;;;;;41.70;19.02;;;;;;;2.73;78.16;99796.38;1728249;83;21125;-84
2020/12/31 11:08:53;;;;;;;38.17;18.85;;;;;;;2.73;78.13;99789.32;1699194;84;21596;-83
2020/12/31 11:11:30;;;;;;;35.40;19.92;;;;;;;2.78;78.04;99790.24;1728594;83;21162;-84
2020/12/31 11:13:57;;;;;;;48.85;22.82;;;;;;;2.82;78.00;99791.12;1727774;83;21536;-77
2020/12/31 11:16:23;;;;;;;53.73;25.40;;;;;;;2.88;77.95;99783.19;1728629;83;21614;-77
2020/12/31 11:18:50;;;;;;;40.33;20.00;;;;;;;2.95;77.89;99781.20;1722363;83;21542;-76
2020/12/31 11:21:19;;;;;;;38.40;18.40;;;;;;;3.02;77.85;99782.80;1728544;83;21246;-75
2020/12/31 11:23:45;;;;;;;41.28;22.77;;;;;;;2.99;77.75;99777.80;1728415;83;21136;-74
2020/12/31 11:26:14;;;;;;;205.65;157.70;;;;;;;3.05;77.73;99773.78;1726381;83;21596;-74
2020/12/31 11:28:41;;;;;;;41.25;22.73;;;;;;;3.00;77.61;99772.86;1705874;83;21196;-82
2020/12/31 11:31:09;;;;;;;54.00;30.17;;;;;;;2.94;77.56;99770.78;1725071;82;21145;-83
2020/12/31 11:33:37;;;;;;;76.33;42.75;;;;;;;2.90;77.50;99770.70;1725046;82;21210;-83